Time;durP1;ratioP1;P1;durP2;ratioP2;P2;SDS_P1;SDS_P2;PMS_P1;PMS_P2;Temp;Humidity;BMP_temperature;BMP_pressure;BME280_temperature;BME280_humidity;BME280_pressure;Samples;Min_cycle;Max_cycle;Signal;HPM_P1;HPM_P2
2022/02/18 07:19:01;;;;;;;26.75;6.50;;;;;;;;;;5083448;22;20045;-93
2022/02/18 07:21:42;;;;;;;22.98;6.93;;;;;;;;;;5057754;28;20052;-95
2022/02/18 07:24:23;;;;;;;25.92;6.18;;;;;;;;;;5043526;28;20030;-94
2022/02/18 08:50:09;;;;;;;28.33;6.70;;;;;;;;;;5239594;22;20124;-90
2022/02/18 08:52:36;;;;;;;24.20;7.40;;;;;;;;;;5027816;28;20045;-88
2022/02/18 08:55:11;;;;;;;24.98;6.30;;;;;;;;;;5026258;28;20045;-88
2022/02/18 08:57:39;;;;;;;26.95;7.78;;;;;;;;;;5025754;28;20057;-88
2022/02/18 09:00:06;;;;;;;39.10;8.35;;;;;;;;;;5028159;28;20057;-88
2022/02/18 09:02:43;;;;;;;26.98;8.00;;;;;;;;;;5024170;28;20052;-88
2022/02/18 09:05:11;;;;;;;31.10;8.23;;;;;;;;;;5025659;28;20147;-89
2022/02/18 15:18:05;;;;;;;2.33;2.10;;;;;;;;;;5037158;28;20241;-92
2022/02/18 18:47:35;;;;;;;12.65;2.58;;;;;;;;;;5559128;22;20037;-93
2022/02/18 18:50:06;;;;;;;14.38;1.80;;;;;;;;;;5044125;28;20037;-93
2022/02/18 19:17:27;;;;;;;14.37;2.40;;;;;;;;;;5450348;22;20041;-94
2022/02/18 19:20:08;;;;;;;13.35;2.03;;;;;;;;;;5044206;28;20034;-93
2022/02/18 19:22:57;;;;;;;10.30;1.38;;;;;;;;;;5057320;28;20089;-95
2022/02/18 19:25:37;;;;;;;13.25;2.35;;;;;;;;;;5043181;28;20056;-93
2022/02/18 19:31:42;;;;;;;13.43;2.67;;;;;;;;;;5059354;28;20036;-94
2022/02/18 19:34:13;;;;;;;17.88;2.10;;;;;;;;;;5042479;28;20037;-94
2022/02/18 19:37:12;;;;;;;10.40;2.13;;;;;;;;;;5041153;28;20048;-95
2022/02/18 19:53:36;;;;;;;14.02;1.70;;;;;;;;;;5414127;22;20053;-94
2022/02/18 19:56:16;;;;;;;8.38;1.20;;;;;;;;;;5032942;28;20025;-94
2022/02/18 20:02:28;;;;;;;8.75;1.60;;;;;;;;;;5038849;28;20068;-96
2022/02/18 20:05:03;;;;;;;10.50;1.63;;;;;;;;;;5022795;28;20038;-96
2022/02/18 21:32:11;;;;;;;12.98;2.63;;;;;;;;;;5016398;28;20042;-95
2022/02/18 21:34:41;;;;;;;15.98;2.33;;;;;;;;;;5002270;28;20038;-93
2022/02/18 21:37:22;;;;;;;16.75;2.30;;;;;;;;;;5018684;28;20070;-96
2022/02/18 21:39:51;;;;;;;11.30;2.15;;;;;;;;;;5021487;28;20045;-96
2022/02/18 21:42:19;;;;;;;12.50;2.78;;;;;;;;;;5021215;28;20034;-96
2022/02/18 22:54:59;;;;;;;12.52;2.25;;;;;;;;;;5249262;23;20065;-94
2022/02/18 22:57:42;;;;;;;10.90;2.00;;;;;;;;;;5041049;28;20041;-92
2022/02/18 23:00:24;;;;;;;17.08;3.55;;;;;;;;;;5044089;28;20021;-96
2022/02/18 23:03:10;;;;;;;10.77;3.15;;;;;;;;;;5043312;28;20034;-96
2022/02/18 23:09:13;;;;;;;14.82;2.30;;;;;;;;;;5059674;28;20029;-95
2022/02/18 23:12:10;;;;;;;18.13;1.98;;;;;;;;;;5039803;28;20030;-93
2022/02/18 23:14:38;;;;;;;17.33;2.83;;;;;;;;;;5042594;28;20101;-93
2022/02/18 23:17:18;;;;;;;12.80;2.10;;;;;;;;;;5041316;28;20033;-95
2022/02/18 23:19:49;;;;;;;19.85;3.65;;;;;;;;;;5042798;28;20084;-95
2022/02/18 23:22:17;;;;;;;15.90;1.90;;;;;;;;;;5042362;28;20033;-94
2022/02/18 23:24:48;;;;;;;8.73;2.17;;;;;;;;;;5042904;28;20047;-93
2022/02/18 23:27:18;;;;;;;12.30;1.88;;;;;;;;;;5042930;28;20057;-93
2022/02/18 23:29:55;;;;;;;13.98;2.25;;;;;;;;;;5043429;28;20079;-94
2022/02/18 23:32:22;;;;;;;19.40;2.50;;;;;;;;;;5041998;28;20056;-94
2022/02/18 23:34:49;;;;;;;30.17;2.88;;;;;;;;;;5041792;28;20057;-96
2022/02/18 23:37:16;;;;;;;14.93;2.88;;;;;;;;;;5041943;28;20037;-93
2022/02/18 23:39:45;;;;;;;21.92;2.65;;;;;;;;;;5041930;28;20034;-94
2022/02/18 23:42:12;;;;;;;10.50;2.33;;;;;;;;;;5042118;28;20037;-95
2022/02/18 23:44:53;;;;;;;21.05;3.30;;;;;;;;;;5057646;28;20036;-94
2022/02/18 23:47:21;;;;;;;17.10;2.17;;;;;;;;;;5042104;28;20049;-95
2022/02/18 23:50:02;;;;;;;24.90;3.38;;;;;;;;;;5043278;28;20037;-94
2022/02/18 23:52:45;;;;;;;14.10;1.80;;;;;;;;;;5041967;28;20033;-92
2022/02/18 23:55:12;;;;;;;16.88;2.78;;;;;;;;;;5041464;28;20072;-94
2022/02/18 23:57:39;;;;;;;15.82;2.53;;;;;;;;;;5041403;28;20033;-93
